Murphy, ID (83650)

11:51 AM MDT en Septiembre 19, 2014 (GMT -0600)
SE Of Kuna | Change Station
CLOSE
Current Station
Estación meteorológica personal
Location: Kuna, ID
Altura: 2769 ft
Estaciones meteorológicas cercanas

Alt 2769 ft 43.46 °N, 116.33 °W | Updated 2 seconds ago

Despejado
Despejado
71.1 ° F
Sensación térmica 77 ° F
N
0.0
Viento Variable Viento desde Oeste
Gusts 0.7 mph

Hoy
Alta -- | Baja -- ° F
--% Posibilidad de precipitaciones
Ayer
Alta -- | Baja -- ° F
Precip. -- pul
7:30 AM 7:48 PM
Creciente menguante, 18% visible
Presión 30.09 pul
Visibilidad 10.0 Millas
Nubes Despejado
Índice de calor 77 ° F
Punto de rocío 53 ° F
Humedad 53%
Precipitaciones 0.00 pul
Espesor de la nieve 0 in , 1 in , 0 in
UV 5 de una escala de 12
Polen 7.90 de una escala de 12
PM2.5 Moderada
Flu Activity No disponible.
METAR KMAN 191735Z AUTO 33009KT 10SM CLR 21/09 A3009 RMK AO1

More Conditions Fewer Conditions

Presión 30.09 pul
Visibilidad 10.0 Millas
Nubes Despejado
Índice de calor 77 ° F
Punto de rocío 53 ° F
Humedad 53%
Precipitaciones 0.00 pul
Espesor de la nieve 0 in , 1 in , 0 in
UV 5 de una escala de 12
Polen 7.90 de una escala de 12
PM2.5 Moderada
Flu Activity No disponible.
METAR KMAN 191735Z AUTO 33009KT 10SM CLR 21/09 A3009 RMK AO1

More Conditions Fewer Conditions

10-Day Weather Forecast

Almanac

Astronomía

Sep. 19, 2014 Salida Puesta
Hora real 7:30 AM MDT 7:48 PM MDT
Crepúsculo civil 7:01 AM MDT 8:17 PM MDT
Crepúsculo náutico 6:28 AM MDT 8:50 PM MDT
Crepúsculo astronómico 5:53 AM MDT 9:24 PM MDT
Luna 3:13 AM MDT 5:25 PM MDT
Horas de luz 13h 15m
Horas de luz
12h 18m
Tomorrow will be 2m 56s shorter.
Creciente menguante, 18% of the Moon is Illuminated
Hoy
Creciente menguante
Sep 24
Nueva
Oct 1
Cuarto creciente
Oct 8
Luna llena
Oct 15
Cuarto menguante

Extremos de hoy

Máximos del estado Bajos del estado

Community

WunderPhotos

Upload Photos

1,754,668 ¡fotos cargadas!

Nearby

Calidad del aire

  Calidad del aire Índice AQ Contaminante
Ayer Moderada
PM10
Ayer Buena
OZONE
Real Moderada
PM2.5
Viernes Moderada
PM2.5
Viernes Buena
OZONE
Sábado Moderada
PM2.5

Grosos de nieve

Estación Profundido Altura
Brundage Reservoir 0 in 6300 ft
Jackson Peak 1 in 7070 ft
Lost Lake 0 in 6110 ft
Bear Mountain 0 in 5400 ft
Humboldt Gulch 1 in 4250 ft

Actividad de terremotos

Ciudad Distance Mag. Tiempo y dato
No hay informes recientes de la actividad sísmica.
Magnitud mínima muestra es 2,5.

Temperaturas de aguas costeras

Lugar Temperatura
Sin partes meteorológicos de las estaciones

Estaciones meteorológicas cercanas